Time;durP1;ratioP1;P1;durP2;ratioP2;P2;SDS_P1;SDS_P2;PMS_P1;PMS_P2;Temp;Humidity;BMP_temperature;BMP_pressure;BME280_temperature;BME280_humidity;BME280_pressure;Samples;Min_cycle;Max_cycle;Signal;HPM_P1;HPM_P2
2022/05/07 00:00:23;;;;;;;14.15;5.65;;;;;;;;;;4995263;28;20134;-65
2022/05/07 00:02:48;;;;;;;12.23;5.65;;;;;;;;;;4997627;28;20528;-64
2022/05/07 00:05:14;;;;;;;15.60;6.38;;;;;;;;;;4997079;28;20045;-64
2022/05/07 00:07:39;;;;;;;11.85;5.63;;;;;;;;;;4996279;28;20866;-64
2022/05/07 00:10:07;;;;;;;12.25;6.35;;;;;;;;;;4996712;28;20098;-65
2022/05/07 00:12:32;;;;;;;14.98;6.32;;;;;;;;;;4995035;28;20650;-64
2022/05/07 00:14:58;;;;;;;14.55;6.72;;;;;;;;;;4996711;28;20106;-65
2022/05/07 00:20:09;;;;;;;16.52;7.38;;;;;;;;;;4996492;28;20047;-65
2022/05/07 00:22:34;;;;;;;15.35;7.50;;;;;;;;;;4996570;28;20684;-65
2022/05/07 00:24:59;;;;;;;20.67;7.68;;;;;;;;;;4997246;28;20148;-65
2022/05/07 00:27:24;;;;;;;11.90;6.70;;;;;;;;;;4996974;28;20030;-65
2022/05/07 00:29:50;;;;;;;18.75;7.45;;;;;;;;;;4998576;28;20338;-65
2022/05/07 00:32:15;;;;;;;18.80;7.75;;;;;;;;;;4995963;28;20037;-65
2022/05/07 00:34:40;;;;;;;18.30;7.13;;;;;;;;;;4999768;28;20121;-65
2022/05/07 00:37:06;;;;;;;19.52;7.57;;;;;;;;;;4996710;28;20099;-65
2022/05/07 00:39:32;;;;;;;17.92;7.70;;;;;;;;;;4996505;28;20065;-65
2022/05/07 00:42:01;;;;;;;16.23;6.95;;;;;;;;;;4996536;28;20096;-65
2022/05/07 00:44:27;;;;;;;14.85;7.13;;;;;;;;;;4995594;28;20046;-65
2022/05/07 00:46:52;;;;;;;19.33;8.60;;;;;;;;;;4997457;28;20080;-65
2022/05/07 00:49:17;;;;;;;15.15;7.97;;;;;;;;;;4993291;28;20037;-65
2022/05/07 00:51:43;;;;;;;20.65;8.43;;;;;;;;;;4997631;28;20055;-65
2022/05/07 00:54:11;;;;;;;23.35;9.25;;;;;;;;;;4994696;28;20044;-65
2022/05/07 00:56:37;;;;;;;23.70;8.80;;;;;;;;;;4996668;28;20237;-65
2022/05/07 00:59:03;;;;;;;23.52;9.13;;;;;;;;;;4996744;28;20423;-65
2022/05/07 01:01:29;;;;;;;23.58;9.25;;;;;;;;;;4996555;28;20509;-64
2022/05/07 01:03:54;;;;;;;22.45;9.20;;;;;;;;;;4995160;28;20037;-64
2022/05/07 01:06:20;;;;;;;19.33;9.38;;;;;;;;;;4994185;28;20254;-65
2022/05/07 01:08:47;;;;;;;24.05;10.30;;;;;;;;;;4996666;28;20057;-64
2022/05/07 01:11:14;;;;;;;23.67;9.95;;;;;;;;;;4995586;28;20041;-64
2022/05/07 01:13:41;;;;;;;22.98;10.73;;;;;;;;;;4995011;28;20033;-64
2022/05/07 01:16:07;;;;;;;24.05;10.65;;;;;;;;;;4994258;28;20457;-67
2022/05/07 01:18:32;;;;;;;24.40;11.00;;;;;;;;;;4994655;28;20032;-64
2022/05/07 01:20:58;;;;;;;26.23;11.05;;;;;;;;;;4995973;28;20040;-66
2022/05/07 01:23:24;;;;;;;29.85;11.35;;;;;;;;;;5008948;28;20129;-64
2022/05/07 01:25:55;;;;;;;25.00;11.27;;;;;;;;;;4995856;28;20063;-64
2022/05/07 01:28:20;;;;;;;27.75;10.65;;;;;;;;;;4995909;28;20435;-64
2022/05/07 01:30:47;;;;;;;26.80;11.15;;;;;;;;;;4996446;28;20060;-64
2022/05/07 01:33:12;;;;;;;25.63;10.77;;;;;;;;;;4994793;28;20083;-64
2022/05/07 01:35:39;;;;;;;24.45;12.00;;;;;;;;;;5002913;28;20120;-64
2022/05/07 01:38:07;;;;;;;23.60;11.70;;;;;;;;;;4994699;28;20190;-67
2022/05/07 01:40:33;;;;;;;29.67;12.10;;;;;;;;;;4977485;28;20291;-64
2022/05/07 01:42:58;;;;;;;35.78;12.75;;;;;;;;;;4993502;28;20254;-64
2022/05/07 01:45:23;;;;;;;31.13;12.57;;;;;;;;;;4995489;28;20063;-64
2022/05/07 01:48:09;;;;;;;28.13;12.82;;;;;;;;;;4993958;28;20029;-64
2022/05/07 01:50:37;;;;;;;31.70;13.23;;;;;;;;;;4997837;28;21902;-65
2022/05/07 01:53:04;;;;;;;32.25;14.13;;;;;;;;;;4995868;28;20500;-65
2022/05/07 01:55:29;;;;;;;31.50;13.43;;;;;;;;;;4995361;28;20079;-65
2022/05/07 01:57:55;;;;;;;33.25;13.98;;;;;;;;;;4995169;28;20703;-64
2022/05/07 02:00:23;;;;;;;30.27;13.57;;;;;;;;;;4996642;28;20394;-64
2022/05/07 02:02:48;;;;;;;41.35;15.38;;;;;;;;;;4994647;28;20036;-64
2022/05/07 02:05:14;;;;;;;35.60;14.85;;;;;;;;;;4995256;28;20438;-65
2022/05/07 02:07:39;;;;;;;33.15;14.38;;;;;;;;;;4995399;28;20128;-65
2022/05/07 02:10:05;;;;;;;36.83;15.73;;;;;;;;;;4995935;28;20313;-64
2022/05/07 02:12:30;;;;;;;39.95;16.38;;;;;;;;;;4995115;28;20029;-64
2022/05/07 02:14:55;;;;;;;42.63;18.08;;;;;;;;;;4981728;28;20473;-64
2022/05/07 02:17:21;;;;;;;37.20;15.73;;;;;;;;;;4995269;28;20044;-64
2022/05/07 02:19:48;;;;;;;41.40;17.08;;;;;;;;;;4995146;28;20034;-65
2022/05/07 02:22:15;;;;;;;35.58;16.20;;;;;;;;;;4995930;28;20041;-66
2022/05/07 02:24:41;;;;;;;48.90;18.13;;;;;;;;;;4995408;28;20576;-67
2022/05/07 02:27:06;;;;;;;38.20;16.20;;;;;;;;;;4995294;28;20338;-65
2022/05/07 02:29:31;;;;;;;42.78;16.65;;;;;;;;;;4998681;28;20686;-64
2022/05/07 02:32:06;;;;;;;43.13;17.38;;;;;;;;;;4995260;28;20489;-64
2022/05/07 02:34:32;;;;;;;41.95;17.33;;;;;;;;;;4999297;28;20460;-65
2022/05/07 02:36:57;;;;;;;44.22;17.92;;;;;;;;;;4998737;28;20170;-65
2022/05/07 02:39:23;;;;;;;45.83;19.25;;;;;;;;;;4999344;28;20133;-65
2022/05/07 02:44:32;;;;;;;42.78;15.93;;;;;;;;;;4997947;28;20041;-64
2022/05/07 02:46:57;;;;;;;43.70;17.65;;;;;;;;;;4998633;28;20640;-65
2022/05/07 02:49:23;;;;;;;45.30;17.92;;;;;;;;;;4996376;28;20098;-65
2022/05/07 02:51:48;;;;;;;39.97;18.08;;;;;;;;;;4998914;28;20041;-65
2022/05/07 02:54:14;;;;;;;43.63;19.45;;;;;;;;;;4998621;28;20034;-64
2022/05/07 02:56:39;;;;;;;38.00;17.48;;;;;;;;;;4995904;28;20056;-64
2022/05/07 02:59:05;;;;;;;45.58;18.30;;;;;;;;;;4998735;28;20041;-65
2022/05/07 03:01:30;;;;;;;44.83;20.65;;;;;;;;;;4997052;28;20587;-64
2022/05/07 03:03:55;;;;;;;40.80;19.15;;;;;;;;;;4996143;28;20033;-65
2022/05/07 03:06:21;;;;;;;40.85;19.58;;;;;;;;;;4998772;28;20048;-65
2022/05/07 03:08:46;;;;;;;41.95;20.48;;;;;;;;;;4996100;28;20037;-65
2022/05/07 03:11:13;;;;;;;44.72;20.52;;;;;;;;;;4997862;28;20486;-64
2022/05/07 03:13:39;;;;;;;41.70;20.23;;;;;;;;;;4996152;28;20834;-65
2022/05/07 03:16:06;;;;;;;44.72;19.63;;;;;;;;;;4999291;28;20525;-65
2022/05/07 03:18:31;;;;;;;45.17;21.55;;;;;;;;;;4997669;28;20037;-64
2022/05/07 03:20:56;;;;;;;47.58;19.95;;;;;;;;;;5000363;28;20040;-64
2022/05/07 03:23:22;;;;;;;43.05;20.45;;;;;;;;;;4996166;28;20033;-64
2022/05/07 03:25:48;;;;;;;45.22;20.25;;;;;;;;;;5000567;28;20062;-64
2022/05/07 03:28:13;;;;;;;46.60;22.75;;;;;;;;;;4997828;28;20124;-64
2022/05/07 03:30:40;;;;;;;41.50;22.05;;;;;;;;;;4978116;28;20542;-64
2022/05/07 03:33:06;;;;;;;45.17;21.17;;;;;;;;;;4998277;28;21717;-64
2022/05/07 03:35:31;;;;;;;47.25;21.40;;;;;;;;;;4995262;28;20186;-64
2022/05/07 03:37:56;;;;;;;46.90;22.05;;;;;;;;;;4997924;28;20048;-64
2022/05/07 03:40:22;;;;;;;45.97;22.70;;;;;;;;;;4997282;28;20068;-65
2022/05/07 03:42:47;;;;;;;47.00;23.67;;;;;;;;;;4997937;28;20038;-64
2022/05/07 03:45:12;;;;;;;45.22;23.88;;;;;;;;;;4995951;28;20128;-64
2022/05/07 03:47:39;;;;;;;48.42;22.73;;;;;;;;;;4997764;28;20029;-64
2022/05/07 03:50:05;;;;;;;47.78;24.45;;;;;;;;;;4997508;28;20044;-65
2022/05/07 03:55:14;;;;;;;47.15;24.88;;;;;;;;;;4997778;28;20029;-64
2022/05/07 03:57:42;;;;;;;46.95;25.77;;;;;;;;;;4995171;28;20630;-65
2022/05/07 04:00:08;;;;;;;55.97;27.55;;;;;;;;;;4995669;28;20254;-65
2022/05/07 04:02:35;;;;;;;51.25;27.10;;;;;;;;;;4978970;28;20048;-65
2022/05/07 04:05:01;;;;;;;49.70;26.30;;;;;;;;;;4978373;28;20172;-65
2022/05/07 04:07:28;;;;;;;51.55;26.00;;;;;;;;;;4997110;28;22435;-65
2022/05/07 04:09:56;;;;;;;48.67;27.10;;;;;;;;;;4995658;28;20732;-65
2022/05/07 04:12:22;;;;;;;48.00;27.15;;;;;;;;;;4998058;28;20076;-64
2022/05/07 04:14:47;;;;;;;57.85;30.35;;;;;;;;;;4994750;28;20041;-64
2022/05/07 04:17:13;;;;;;;57.58;27.90;;;;;;;;;;4996630;28;20465;-65
2022/05/07 04:19:38;;;;;;;51.90;30.05;;;;;;;;;;4997010;28;20235;-65
2022/05/07 04:22:03;;;;;;;56.67;30.02;;;;;;;;;;4994472;28;20135;-64
2022/05/07 04:24:29;;;;;;;51.25;28.52;;;;;;;;;;4995947;28;20485;-65
2022/05/07 04:26:56;;;;;;;51.63;27.65;;;;;;;;;;4996949;28;20065;-65
2022/05/07 04:29:21;;;;;;;52.58;29.80;;;;;;;;;;5011740;28;20140;-65
2022/05/07 04:31:49;;;;;;;57.97;27.95;;;;;;;;;;4996879;28;20148;-65
2022/05/07 04:34:15;;;;;;;51.30;28.38;;;;;;;;;;4997183;28;20099;-64
2022/05/07 04:36:40;;;;;;;57.83;30.75;;;;;;;;;;4998523;28;20658;-65
2022/05/07 04:39:05;;;;;;;63.05;31.70;;;;;;;;;;4996885;28;20318;-64
2022/05/07 04:41:31;;;;;;;61.80;31.67;;;;;;;;;;4997250;28;20497;-64
2022/05/07 04:43:56;;;;;;;63.67;31.42;;;;;;;;;;4996405;28;20246;-65
2022/05/07 04:46:22;;;;;;;54.50;30.30;;;;;;;;;;4998197;28;20665;-65
2022/05/07 04:48:47;;;;;;;59.00;30.73;;;;;;;;;;4998558;28;20675;-65
2022/05/07 04:51:14;;;;;;;63.92;34.88;;;;;;;;;;4996501;28;20076;-66
2022/05/07 04:53:40;;;;;;;59.00;31.60;;;;;;;;;;4994516;28;20325;-65
2022/05/07 04:56:05;;;;;;;58.53;33.33;;;;;;;;;;5004549;28;20420;-65
2022/05/07 04:58:31;;;;;;;54.30;32.50;;;;;;;;;;4996703;28;20253;-66
2022/05/07 05:00:56;;;;;;;56.72;32.88;;;;;;;;;;4992568;28;20037;-65
2022/05/07 05:03:24;;;;;;;52.28;30.08;;;;;;;;;;4995521;28;20174;-65
2022/05/07 05:05:49;;;;;;;56.80;30.27;;;;;;;;;;4996125;28;20103;-66
2022/05/07 05:08:14;;;;;;;49.97;28.77;;;;;;;;;;4993121;28;20041;-65
2022/05/07 05:10:40;;;;;;;52.50;29.48;;;;;;;;;;4996364;28;20359;-66
2022/05/07 05:13:05;;;;;;;64.78;31.40;;;;;;;;;;4996448;28;20034;-65
2022/05/07 05:15:33;;;;;;;53.40;30.63;;;;;;;;;;5009864;28;20036;-65
2022/05/07 05:17:59;;;;;;;53.95;29.08;;;;;;;;;;4994377;28;20406;-65
2022/05/07 05:20:25;;;;;;;55.75;31.67;;;;;;;;;;4991892;28;20056;-65
2022/05/07 05:22:50;;;;;;;53.97;31.05;;;;;;;;;;4994140;28;20029;-67
2022/05/07 05:25:16;;;;;;;49.40;31.42;;;;;;;;;;4995618;28;20715;-64
2022/05/07 05:27:42;;;;;;;52.10;29.63;;;;;;;;;;4992476;28;20517;-65
2022/05/07 05:30:08;;;;;;;49.15;28.27;;;;;;;;;;4989149;28;20040;-65
2022/05/07 05:32:33;;;;;;;49.67;29.08;;;;;;;;;;4995903;28;20033;-68
2022/05/07 05:34:58;;;;;;;51.38;27.88;;;;;;;;;;4994523;28;22060;-65
2022/05/07 05:37:23;;;;;;;47.35;27.98;;;;;;;;;;4994260;28;20510;-66
2022/05/07 05:39:49;;;;;;;47.88;26.63;;;;;;;;;;4995577;28;20764;-66
2022/05/07 05:42:14;;;;;;;51.75;28.95;;;;;;;;;;4996967;28;20185;-65
2022/05/07 05:44:39;;;;;;;48.38;27.17;;;;;;;;;;4995951;28;20045;-67
2022/05/07 05:47:05;;;;;;;45.42;28.45;;;;;;;;;;4992850;28;20826;-67
2022/05/07 05:49:31;;;;;;;47.92;26.85;;;;;;;;;;4997540;28;20037;-66
2022/05/07 05:51:56;;;;;;;41.92;25.65;;;;;;;;;;4999501;28;20038;-67
2022/05/07 05:54:22;;;;;;;50.35;28.00;;;;;;;;;;4994535;28;20478;-65
2022/05/07 05:56:47;;;;;;;49.00;25.63;;;;;;;;;;4995265;28;20490;-65
2022/05/07 05:59:12;;;;;;;48.10;26.23;;;;;;;;;;4992942;28;22362;-64
2022/05/07 06:01:38;;;;;;;39.90;26.08;;;;;;;;;;4995015;28;20136;-64
2022/05/07 06:04:04;;;;;;;43.13;25.65;;;;;;;;;;4999647;28;20083;-65
2022/05/07 06:06:32;;;;;;;42.45;25.98;;;;;;;;;;4995652;28;20044;-64
2022/05/07 06:08:57;;;;;;;42.63;27.20;;;;;;;;;;5000868;28;20623;-67
2022/05/07 06:11:25;;;;;;;42.65;25.90;;;;;;;;;;5003369;28;20033;-67
2022/05/07 06:13:53;;;;;;;39.63;24.35;;;;;;;;;;5002845;28;20201;-67
2022/05/07 06:16:18;;;;;;;40.90;24.17;;;;;;;;;;5004523;28;20041;-70
2022/05/07 06:18:46;;;;;;;37.08;24.38;;;;;;;;;;5004001;28;20037;-64
2022/05/07 06:21:11;;;;;;;38.03;23.35;;;;;;;;;;5003704;28;20045;-65
2022/05/07 06:23:36;;;;;;;33.55;21.52;;;;;;;;;;4998838;28;20085;-67
2022/05/07 06:28:49;;;;;;;35.20;21.65;;;;;;;;;;4997089;28;20044;-65
2022/05/07 06:31:17;;;;;;;39.30;23.08;;;;;;;;;;5003478;28;21203;-66
2022/05/07 06:33:43;;;;;;;32.00;21.02;;;;;;;;;;5003500;28;20064;-68
2022/05/07 06:36:08;;;;;;;37.53;22.63;;;;;;;;;;5003501;28;20041;-67
2022/05/07 06:38:34;;;;;;;39.38;21.48;;;;;;;;;;5003491;28;20672;-66
2022/05/07 06:41:02;;;;;;;37.13;21.25;;;;;;;;;;4998660;28;20038;-66
2022/05/07 06:43:31;;;;;;;38.70;22.77;;;;;;;;;;4993730;28;20033;-67
2022/05/07 06:46:00;;;;;;;36.95;21.15;;;;;;;;;;4998189;28;20496;-66
2022/05/07 06:48:27;;;;;;;37.28;23.48;;;;;;;;;;4999762;28;20129;-67
2022/05/07 06:50:53;;;;;;;36.03;21.00;;;;;;;;;;4998282;28;20028;-67
2022/05/07 06:53:19;;;;;;;40.22;22.30;;;;;;;;;;4999063;28;20101;-67
2022/05/07 06:55:58;;;;;;;38.85;23.60;;;;;;;;;;4998653;28;20130;-67
2022/05/07 06:58:33;;;;;;;33.75;20.88;;;;;;;;;;4996060;28;20033;-64
2022/05/07 07:01:00;;;;;;;31.58;19.92;;;;;;;;;;4999144;28;20125;-65
2022/05/07 07:03:26;;;;;;;36.13;20.40;;;;;;;;;;4998120;28;20207;-65
2022/05/07 07:05:52;;;;;;;40.42;21.30;;;;;;;;;;4996210;28;20602;-65
2022/05/07 07:08:20;;;;;;;41.95;21.35;;;;;;;;;;4998065;28;20460;-64
2022/05/07 07:10:45;;;;;;;32.45;21.95;;;;;;;;;;4998346;28;20205;-64
2022/05/07 07:13:11;;;;;;;34.45;21.35;;;;;;;;;;5001364;28;20135;-65
2022/05/07 07:15:39;;;;;;;33.40;21.23;;;;;;;;;;4996615;28;20037;-65
2022/05/07 07:18:09;;;;;;;32.90;19.52;;;;;;;;;;4999782;28;20108;-66
2022/05/07 07:20:35;;;;;;;32.05;19.95;;;;;;;;;;4997202;28;20113;-65
2022/05/07 07:23:00;;;;;;;32.20;19.83;;;;;;;;;;5002939;28;20151;-66
2022/05/07 07:25:26;;;;;;;38.42;19.35;;;;;;;;;;4997114;28;20212;-66
2022/05/07 07:27:51;;;;;;;31.40;17.40;;;;;;;;;;4999377;28;20029;-67
2022/05/07 07:30:16;;;;;;;30.15;18.00;;;;;;;;;;5004622;28;20503;-64
2022/05/07 07:32:42;;;;;;;29.00;17.55;;;;;;;;;;5003421;28;20743;-66
2022/05/07 07:35:08;;;;;;;27.23;17.13;;;;;;;;;;5000289;28;20037;-66
2022/05/07 07:37:33;;;;;;;27.73;16.98;;;;;;;;;;5002242;28;20809;-67
2022/05/07 07:40:00;;;;;;;27.70;18.38;;;;;;;;;;5001761;28;20041;-66
2022/05/07 07:42:25;;;;;;;27.27;17.15;;;;;;;;;;5000171;28;20037;-66
2022/05/07 07:47:56;;;;;;;27.33;16.67;;;;;;;;;;5001076;28;20045;-66
2022/05/07 07:47:56;;;;;;;30.77;18.35;;;;;;;;;;4999861;28;20102;-70
2022/05/07 07:50:22;;;;;;;33.15;19.15;;;;;;;;;;4997481;28;20041;-65
2022/05/07 07:52:51;;;;;;;32.15;18.52;;;;;;;;;;4995069;28;20045;-65
2022/05/07 07:55:17;;;;;;;31.95;19.13;;;;;;;;;;4997704;28;20033;-66
2022/05/07 07:57:43;;;;;;;30.90;19.13;;;;;;;;;;4997038;28;20510;-67
2022/05/07 08:00:08;;;;;;;33.20;17.92;;;;;;;;;;5000392;28;21038;-66
2022/05/07 08:02:33;;;;;;;30.38;19.08;;;;;;;;;;5006158;28;20640;-66
2022/05/07 08:04:59;;;;;;;31.02;19.25;;;;;;;;;;4999113;28;20182;-66
2022/05/07 08:12:52;;;;;;;29.70;17.25;;;;;;;;;;4996398;28;20041;-65
2022/05/07 08:15:20;;;;;;;33.88;18.08;;;;;;;;;;5013866;28;20111;-65
2022/05/07 08:17:48;;;;;;;31.60;17.25;;;;;;;;;;4997217;28;20803;-66
2022/05/07 08:20:13;;;;;;;29.92;17.65;;;;;;;;;;5007594;28;20040;-66
2022/05/07 08:22:38;;;;;;;27.98;16.15;;;;;;;;;;4996121;28;20033;-66
2022/05/07 08:25:05;;;;;;;24.05;14.70;;;;;;;;;;5000408;28;20127;-65
2022/05/07 08:27:31;;;;;;;25.77;15.60;;;;;;;;;;4995523;28;20037;-67
2022/05/07 08:29:56;;;;;;;31.23;16.15;;;;;;;;;;4997872;28;20037;-65
2022/05/07 08:32:22;;;;;;;28.58;16.08;;;;;;;;;;4995983;28;20819;-66
2022/05/07 08:34:48;;;;;;;27.25;16.33;;;;;;;;;;4997346;28;20182;-64
2022/05/07 08:37:14;;;;;;;25.65;16.10;;;;;;;;;;4996554;28;20040;-65
2022/05/07 08:39:41;;;;;;;28.08;15.32;;;;;;;;;;4996387;28;20087;-66
2022/05/07 08:42:09;;;;;;;25.38;14.70;;;;;;;;;;4995600;28;20131;-66
2022/05/07 08:44:35;;;;;;;23.45;14.88;;;;;;;;;;4996567;28;21019;-67
2022/05/07 08:47:01;;;;;;;22.75;14.95;;;;;;;;;;4998021;28;20830;-67
2022/05/07 08:49:26;;;;;;;25.52;15.02;;;;;;;;;;4997529;28;20119;-66
2022/05/07 08:51:55;;;;;;;26.95;15.07;;;;;;;;;;5012770;28;20041;-67
2022/05/07 08:54:20;;;;;;;26.58;14.70;;;;;;;;;;4997450;28;20811;-66
2022/05/07 08:56:48;;;;;;;27.48;15.20;;;;;;;;;;4994859;28;20901;-70
2022/05/07 08:59:13;;;;;;;24.83;14.30;;;;;;;;;;4998810;28;20132;-65
2022/05/07 09:01:42;;;;;;;25.75;13.88;;;;;;;;;;4996557;28;20105;-67
2022/05/07 09:04:09;;;;;;;23.88;14.52;;;;;;;;;;4997967;28;20850;-67
2022/05/07 09:06:37;;;;;;;27.63;14.82;;;;;;;;;;5000341;28;20037;-68
2022/05/07 09:09:06;;;;;;;23.35;14.82;;;;;;;;;;5000956;28;20874;-67
2022/05/07 09:11:39;;;;;;;23.23;14.20;;;;;;;;;;4997370;28;20128;-68
2022/05/07 09:14:05;;;;;;;27.83;14.55;;;;;;;;;;4998850;28;20071;-68
2022/05/07 09:16:45;;;;;;;25.42;14.75;;;;;;;;;;4997944;28;25185;-67
2022/05/07 09:19:25;;;;;;;22.23;13.63;;;;;;;;;;4996009;28;20041;-65
2022/05/07 09:21:51;;;;;;;22.92;13.00;;;;;;;;;;4996231;28;20036;-69
2022/05/07 09:24:17;;;;;;;22.88;13.15;;;;;;;;;;4997603;28;20033;-68
2022/05/07 09:26:44;;;;;;;16.95;11.98;;;;;;;;;;4996670;28;20513;-69
2022/05/07 09:29:12;;;;;;;20.20;13.23;;;;;;;;;;4997190;28;21024;-73
2022/05/07 09:31:41;;;;;;;22.98;13.02;;;;;;;;;;4999994;28;20037;-68
2022/05/07 09:36:58;;;;;;;20.23;13.25;;;;;;;;;;4996919;28;20988;-69
2022/05/07 09:39:30;;;;;;;24.52;14.98;;;;;;;;;;4995088;28;20036;-68
2022/05/07 09:41:58;;;;;;;20.30;13.88;;;;;;;;;;4995905;28;20248;-68
2022/05/07 09:44:26;;;;;;;24.25;14.98;;;;;;;;;;4993088;28;20033;-68
2022/05/07 09:46:52;;;;;;;23.15;15.27;;;;;;;;;;4993015;28;20553;-67
2022/05/07 09:49:18;;;;;;;21.33;15.38;;;;;;;;;;4997004;28;20120;-67
2022/05/07 09:51:44;;;;;;;23.55;15.95;;;;;;;;;;4997814;28;20704;-66
2022/05/07 09:59:39;;;;;;;25.38;16.75;;;;;;;;;;4998679;28;20040;-68
2022/05/07 10:02:05;;;;;;;24.73;17.15;;;;;;;;;;4996393;28;20124;-70
2022/05/07 10:04:49;;;;;;;26.48;18.02;;;;;;;;;;4999194;28;20113;-69
2022/05/07 10:07:33;;;;;;;27.42;19.10;;;;;;;;;;5000015;28;22317;-69
2022/05/07 10:10:01;;;;;;;26.63;18.80;;;;;;;;;;5012428;28;20680;-69
2022/05/07 10:12:27;;;;;;;31.30;19.35;;;;;;;;;;4995741;28;20056;-69
2022/05/07 10:15:03;;;;;;;28.23;20.08;;;;;;;;;;4992349;28;20041;-69
2022/05/07 10:17:28;;;;;;;32.00;20.70;;;;;;;;;;4993911;28;20101;-71
2022/05/07 10:20:04;;;;;;;31.33;20.58;;;;;;;;;;4995417;28;20090;-71
2022/05/07 10:22:36;;;;;;;31.88;20.50;;;;;;;;;;4994298;28;20094;-70
2022/05/07 10:25:03;;;;;;;31.95;21.15;;;;;;;;;;4995722;28;20122;-68
2022/05/07 10:27:32;;;;;;;31.58;21.05;;;;;;;;;;4996796;28;20069;-69
2022/05/07 10:30:04;;;;;;;34.45;22.13;;;;;;;;;;4996249;28;20826;-69
2022/05/07 10:32:30;;;;;;;34.00;21.40;;;;;;;;;;4995070;28;20029;-69
2022/05/07 10:34:56;;;;;;;31.67;21.60;;;;;;;;;;4997003;28;20044;-70
2022/05/07 10:37:21;;;;;;;31.58;22.27;;;;;;;;;;4993254;28;20045;-69
2022/05/07 10:39:51;;;;;;;37.05;23.33;;;;;;;;;;4996235;28;20032;-71
2022/05/07 10:42:17;;;;;;;35.30;22.65;;;;;;;;;;4996111;28;21778;-70
2022/05/07 10:44:43;;;;;;;35.42;23.00;;;;;;;;;;4995462;28;20053;-71
2022/05/07 10:47:10;;;;;;;34.28;22.92;;;;;;;;;;4998044;28;20037;-70
2022/05/07 10:49:50;;;;;;;37.88;23.10;;;;;;;;;;4996347;28;20168;-68
2022/05/07 10:52:26;;;;;;;35.78;23.27;;;;;;;;;;5000012;28;20037;-67
2022/05/07 10:55:02;;;;;;;35.58;23.08;;;;;;;;;;5001648;28;20045;-68
2022/05/07 10:57:38;;;;;;;36.97;22.95;;;;;;;;;;5000947;28;20071;-67
2022/05/07 11:00:08;;;;;;;36.35;22.85;;;;;;;;;;4998629;28;20041;-67
2022/05/07 11:02:35;;;;;;;34.35;22.20;;;;;;;;;;4997847;28;20059;-66
2022/05/07 11:05:01;;;;;;;36.17;24.23;;;;;;;;;;4995295;28;20041;-67
2022/05/07 11:07:27;;;;;;;40.05;24.65;;;;;;;;;;5000404;28;20030;-68
2022/05/07 11:09:53;;;;;;;43.67;25.90;;;;;;;;;;5002486;28;20040;-69
2022/05/07 11:12:22;;;;;;;41.40;25.15;;;;;;;;;;5013709;28;20136;-66
2022/05/07 11:14:48;;;;;;;37.45;23.02;;;;;;;;;;5001819;28;20033;-66
2022/05/07 11:17:17;;;;;;;38.22;24.52;;;;;;;;;;5003541;28;20052;-66
2022/05/07 11:19:42;;;;;;;39.13;23.45;;;;;;;;;;5001885;28;20045;-67
2022/05/07 11:22:10;;;;;;;39.38;23.77;;;;;;;;;;5000781;28;20545;-67
2022/05/07 11:24:35;;;;;;;34.15;23.23;;;;;;;;;;5000885;28;20133;-65
2022/05/07 11:27:05;;;;;;;38.13;23.45;;;;;;;;;;5001633;28;20106;-68
2022/05/07 11:29:31;;;;;;;38.20;24.38;;;;;;;;;;5001588;28;20106;-66
2022/05/07 11:32:07;;;;;;;37.63;24.50;;;;;;;;;;4998401;28;20531;-68
2022/05/07 11:34:32;;;;;;;38.10;23.70;;;;;;;;;;5012230;28;20036;-67
2022/05/07 11:37:16;;;;;;;37.30;23.85;;;;;;;;;;4998753;28;20573;-65
2022/05/07 11:39:51;;;;;;;38.50;24.40;;;;;;;;;;4979579;28;20043;-66
2022/05/07 11:42:26;;;;;;;38.00;23.10;;;;;;;;;;4997788;28;20116;-67
2022/05/07 11:47:38;;;;;;;35.80;22.00;;;;;;;;;;5001187;28;20079;-67
2022/05/07 11:50:06;;;;;;;39.40;23.20;;;;;;;;;;4999486;28;20029;-70
2022/05/07 11:52:31;;;;;;;39.10;23.88;;;;;;;;;;4996602;28;20041;-68
2022/05/07 11:55:02;;;;;;;37.45;23.35;;;;;;;;;;4999002;28;20762;-67
2022/05/07 11:57:33;;;;;;;37.78;23.00;;;;;;;;;;5002440;28;20045;-67
2022/05/07 12:00:15;;;;;;;40.88;23.05;;;;;;;;;;4998694;28;20776;-65
2022/05/07 12:02:54;;;;;;;36.20;22.23;;;;;;;;;;4992562;28;20029;-69
2022/05/07 12:05:20;;;;;;;36.10;21.27;;;;;;;;;;5012695;28;22324;-74
2022/05/07 12:07:47;;;;;;;34.72;21.27;;;;;;;;;;5004738;28;20061;-64
2022/05/07 12:10:12;;;;;;;35.22;20.50;;;;;;;;;;5002359;28;20042;-68
2022/05/07 12:12:38;;;;;;;39.03;21.50;;;;;;;;;;5001568;28;20033;-67
2022/05/07 12:15:04;;;;;;;33.33;20.10;;;;;;;;;;5001835;28;20085;-70
2022/05/07 12:20:13;;;;;;;30.63;18.88;;;;;;;;;;5000338;28;21098;-65
2022/05/07 12:30:50;;;;;;;29.15;17.90;;;;;;;;;;5001068;28;20053;-69
2022/05/07 12:33:15;;;;;;;29.35;18.77;;;;;;;;;;4999947;28;20037;-68
2022/05/07 12:35:41;;;;;;;28.42;19.33;;;;;;;;;;5000651;28;20041;-69
2022/05/07 12:38:06;;;;;;;34.20;19.38;;;;;;;;;;5002646;28;20137;-72
2022/05/07 12:40:32;;;;;;;31.40;20.10;;;;;;;;;;5002012;28;20048;-68
2022/05/07 12:43:00;;;;;;;29.63;18.23;;;;;;;;;;5000416;28;20144;-67
2022/05/07 12:45:25;;;;;;;28.55;18.75;;;;;;;;;;5000568;28;20045;-68
2022/05/07 12:47:50;;;;;;;29.42;18.63;;;;;;;;;;4997524;28;20040;-67
2022/05/07 12:50:16;;;;;;;26.67;17.83;;;;;;;;;;4996089;28;20209;-70
2022/05/07 12:52:41;;;;;;;26.52;18.17;;;;;;;;;;4997165;28;20369;-67
2022/05/07 12:55:09;;;;;;;31.20;18.30;;;;;;;;;;4992653;28;20033;-68
2022/05/07 12:57:34;;;;;;;27.10;18.65;;;;;;;;;;4998110;28;20049;-67
2022/05/07 13:00:00;;;;;;;26.88;17.50;;;;;;;;;;5000156;28;20056;-67
2022/05/07 13:02:25;;;;;;;28.98;18.15;;;;;;;;;;4999187;28;20040;-67
2022/05/07 13:04:50;;;;;;;30.15;18.58;;;;;;;;;;4988785;28;20748;-66
2022/05/07 13:07:16;;;;;;;29.35;18.10;;;;;;;;;;5001588;28;20142;-66
2022/05/07 13:09:41;;;;;;;30.40;19.15;;;;;;;;;;4998054;28;20160;-69
2022/05/07 13:12:10;;;;;;;30.45;18.40;;;;;;;;;;5000281;28;20099;-69
2022/05/07 13:14:35;;;;;;;31.05;20.38;;;;;;;;;;5001152;28;20055;-72
2022/05/07 13:17:01;;;;;;;31.75;20.17;;;;;;;;;;5001952;28;20040;-72
2022/05/07 13:19:26;;;;;;;29.98;19.60;;;;;;;;;;5001139;28;21006;-69
2022/05/07 13:21:54;;;;;;;30.92;19.40;;;;;;;;;;5000566;28;20236;-76
2022/05/07 13:24:22;;;;;;;33.65;20.80;;;;;;;;;;4999967;28;20749;-70
2022/05/07 13:26:48;;;;;;;31.20;20.70;;;;;;;;;;5000788;28;20106;-68
2022/05/07 13:29:13;;;;;;;35.67;22.17;;;;;;;;;;4998387;28;21359;-80
2022/05/07 13:31:39;;;;;;;34.25;21.27;;;;;;;;;;4996760;28;20041;-72
2022/05/07 13:34:04;;;;;;;38.25;23.38;;;;;;;;;;4996616;28;20080;-72
2022/05/07 13:36:30;;;;;;;35.40;22.35;;;;;;;;;;4986985;28;20750;-69
2022/05/07 13:38:58;;;;;;;38.67;23.48;;;;;;;;;;5011220;28;20281;-70
2022/05/07 13:41:24;;;;;;;36.83;22.85;;;;;;;;;;4996767;28;20060;-74
2022/05/07 13:43:49;;;;;;;42.30;23.02;;;;;;;;;;4996693;28;20738;-75
2022/05/07 13:46:15;;;;;;;36.50;23.98;;;;;;;;;;4995775;28;20033;-70
2022/05/07 13:48:40;;;;;;;36.83;22.55;;;;;;;;;;4993262;28;20156;-67
2022/05/07 13:51:05;;;;;;;34.83;22.60;;;;;;;;;;4997139;28;20042;-66
2022/05/07 13:53:31;;;;;;;37.65;23.15;;;;;;;;;;4994290;28;20033;-68
2022/05/07 13:55:59;;;;;;;38.15;23.05;;;;;;;;;;4993086;28;20029;-69
2022/05/07 13:58:24;;;;;;;37.45;22.33;;;;;;;;;;4995531;28;20033;-72
2022/05/07 14:00:51;;;;;;;40.63;22.95;;;;;;;;;;4994904;28;20030;-69
2022/05/07 14:03:19;;;;;;;42.53;24.50;;;;;;;;;;5006664;28;20041;-70
2022/05/07 14:05:44;;;;;;;44.83;26.15;;;;;;;;;;5011114;28;20037;-72
2022/05/07 14:08:09;;;;;;;44.80;25.88;;;;;;;;;;4997801;28;20025;-71
2022/05/07 14:10:35;;;;;;;46.10;24.73;;;;;;;;;;4995593;28;20167;-72
2022/05/07 14:13:01;;;;;;;53.42;27.52;;;;;;;;;;4996280;28;20285;-70
2022/05/07 14:15:27;;;;;;;50.28;26.73;;;;;;;;;;4996055;28;20502;-70
2022/05/07 14:17:52;;;;;;;44.22;26.05;;;;;;;;;;4995589;28;20052;-71
2022/05/07 14:20:18;;;;;;;48.22;26.65;;;;;;;;;;4996727;28;20754;-72
2022/05/07 14:22:43;;;;;;;51.22;27.67;;;;;;;;;;4992804;28;20405;-69
2022/05/07 14:25:09;;;;;;;52.55;29.25;;;;;;;;;;4994502;28;20146;-71
2022/05/07 14:27:36;;;;;;;66.13;34.85;;;;;;;;;;4990419;28;20088;-72
2022/05/07 14:30:01;;;;;;;67.30;32.78;;;;;;;;;;5000608;28;20029;-73
2022/05/07 14:32:27;;;;;;;62.97;31.98;;;;;;;;;;5005004;28;20138;-71
2022/05/07 14:34:55;;;;;;;69.00;31.95;;;;;;;;;;5002448;28;20048;-75
2022/05/07 14:37:20;;;;;;;59.97;31.40;;;;;;;;;;5002988;28;20472;-68
2022/05/07 14:39:45;;;;;;;52.92;28.90;;;;;;;;;;5000106;28;20033;-69
2022/05/07 14:42:11;;;;;;;56.08;27.48;;;;;;;;;;5001158;28;20038;-72
2022/05/07 14:44:38;;;;;;;51.00;26.52;;;;;;;;;;5002580;28;20151;-71
2022/05/07 14:47:07;;;;;;;46.47;22.92;;;;;;;;;;5000127;28;20780;-69
2022/05/07 14:49:35;;;;;;;41.22;22.05;;;;;;;;;;5001511;28;20041;-71
2022/05/07 14:52:00;;;;;;;49.38;22.52;;;;;;;;;;5002412;28;20040;-69
2022/05/07 14:54:26;;;;;;;46.38;21.30;;;;;;;;;;5000439;28;20033;-68